Clark Todd — WDH6420 — position and weather

sailwx.info

Track history (hours):
 
Tides and Currents Weather Stations Pressure Air Temp Water Temp Dewpoint Dewpoint Depression Visibility Wind Speed Wind Dir Waves Ship Positions

Clark Todd

Owner: The Barge Investment Group Ten, LLC, Harahan, LA. More information available from US FCC via Universal Licensing System and Coast Guard Vessel Documentation Center.

Last reported at 2018-Jul-22 06:30 UTC. Time now 2018-Jul-22 06:33 UTC.
Position N 29°60' W 093°55'.

Length 25 m; draft 2.7 m.

Type: Towing. MMSI: 367637760.

Date/timePositionNaut miles runAvg speedWind from/ knotsBaromVisibWave heightAir tempDewpointWater temp
2018-Jul-22 06:30N 29°60' W 093°55'0 0.0
2018-Jul-22 06:00N 29°60' W 093°55'0 0.0
2018-Jul-22 05:30N 29°60' W 093°55'0 0.0
2018-Jul-22 05:00N 29°60' W 093°55'0 0.0
2018-Jul-22 04:30N 29°60' W 093°55'0 0.0
2018-Jul-22 04:00N 29°60' W 093°55'0 0.0
2018-Jul-22 03:30N 29°60' W 093°55'0 0.0
2018-Jul-22 03:00N 29°60' W 093°55'0 0.0
2018-Jul-22 02:30N 29°60' W 093°55'0 0.0
2018-Jul-22 02:00N 29°60' W 093°55'0 0.0
2018-Jul-22 01:30N 29°60' W 093°55'0 0.0
2018-Jul-22 01:00N 29°60' W 093°55'0 0.0
2018-Jul-22 00:30N 29°60' W 093°55'0 0.0
2018-Jul-22 00:00N 29°60' W 093°55'0 0.0
2018-Jul-21 23:30N 29°60' W 093°55'0 0.0
2018-Jul-21 23:00N 29°60' W 093°55'0 0.0
2018-Jul-21 22:30N 29°60' W 093°55'0 0.0
2018-Jul-21 22:00N 29°60' W 093°55'0 0.0
2018-Jul-21 21:24N 29°60' W 093°55'0 0.0
2018-Jul-21 21:00N 29°60' W 093°55'0 0.0
2018-Jul-21 20:30N 29°60' W 093°55'0 0.0
2018-Jul-21 20:00N 29°60' W 093°55'0 0.0
2018-Jul-21 19:30N 29°60' W 093°55'0 0.0
2018-Jul-21 19:00N 29°60' W 093°55'0 0.0
2018-Jul-21 18:30N 29°60' W 093°55'1 2.5
2018-Jul-21 18:00N 29°60' W 093°56'2 4.3
2018-Jul-21 17:30N 30°01' W 093°58'0 0.7
2018-Jul-21 16:56N 30°00' W 093°59'0 0.0
2018-Jul-21 16:29N 30°00' W 093°59'0 0.0
2018-Jul-21 15:59N 30°00' W 093°59'0 0.0
2018-Jul-21 15:29N 30°00' W 093°59'0 0.0
2018-Jul-21 14:56N 30°00' W 093°59'0 0.0
2018-Jul-21 14:29N 30°00' W 093°59'0 0.0
2018-Jul-21 13:29N 30°00' W 093°59'0 0.0
2018-Jul-21 12:59N 30°00' W 093°59'0 0.0
2018-Jul-21 12:26N 30°00' W 093°59'0 0.0
2018-Jul-21 11:59N 30°00' W 093°59'0 0.0
2018-Jul-21 11:26N 30°00' W 093°59'0 0.0
2018-Jul-21 10:59N 30°00' W 093°59'0 0.0
2018-Jul-21 10:29N 30°00' W 093°59'0 0.0
2018-Jul-21 09:59N 30°00' W 093°59'0 0.0
2018-Jul-21 09:29N 30°00' W 093°59'0 0.0
2018-Jul-21 08:59N 30°00' W 093°59'0 0.0
2018-Jul-21 08:29N 30°00' W 093°59'0 0.0
2018-Jul-21 07:59N 30°00' W 093°59'0 0.0
2018-Jul-21 07:29N 30°00' W 093°59'0 0.0
2018-Jul-21 06:59N 30°00' W 093°59'0 0.0
2018-Jul-21 06:29N 30°00' W 093°59'0 0.0
2018-Jul-21 05:59N 30°00' W 093°59'0 0.0
2018-Jul-21 05:29N 30°00' W 093°59'0 0.0
2018-Jul-21 04:59N 30°00' W 093°59'0 0.0
2018-Jul-21 04:29N 30°00' W 093°59'0 0.0
2018-Jul-21 04:00N 30°00' W 093°59'0 0.0
2018-Jul-21 03:30N 30°00' W 093°59'0 0.0
2018-Jul-21 03:00N 30°00' W 093°59'0 0.0
2018-Jul-21 02:30N 30°00' W 093°59'0 0.0
2018-Jul-21 02:00N 30°00' W 093°59'0 0.1
2018-Jul-21 01:30N 30°01' W 093°59'0 0.0
2018-Jul-21 01:00N 30°01' W 093°59'0 0.0
2018-Jul-21 00:30N 30°01' W 093°59'0 0.0
2018-Jul-21 00:00N 30°01' W 093°59'0 0.0
2018-Jul-20 23:30N 30°01' W 093°59'1 1.4
2018-Jul-20 23:00N 30°01' W 093°58'2 4.7
2018-Jul-20 22:30N 29°60' W 093°56'1 1.2
2018-Jul-20 22:00N 29°60' W 093°55'0 0.0
2018-Jul-20 21:30N 29°60' W 093°55'0 0.0
2018-Jul-20 21:00N 29°60' W 093°55'0 0.4
2018-Jul-20 20:30N 29°60' W 093°55'0 0.9
2018-Jul-20 20:00N 29°59' W 093°55'1 1.2
2018-Jul-20 19:30N 29°59' W 093°55'2 4.8
2018-Jul-20 19:00N 29°59' W 093°52'2 3.8
2018-Jul-20 18:30N 29°59' W 093°50'3 5.1
2018-Jul-20 18:00N 29°60' W 093°47'2 4.7
2018-Jul-20 17:30N 30°01' W 093°45'2 4.4
2018-Jul-20 17:00N 30°03' W 093°44'2 4.2
2018-Jul-20 16:29N 30°04' W 093°41'2 3.7
2018-Jul-20 16:00N 30°04' W 093°39'2 3.6
2018-Jul-20 15:30N 30°04' W 093°37'1 2.7
2018-Jul-20 15:00N 30°04' W 093°36'2 3.4
2018-Jul-20 14:29N 30°04' W 093°34'2 3.2
2018-Jul-20 13:55N 30°04' W 093°31'0 0.3
2018-Jul-20 13:30N 30°04' W 093°32'1 2.4
2018-Jul-20 12:57N 30°04' W 093°30'1 2.7
2018-Jul-20 12:26N 30°04' W 093°28'1 3.3
2018-Jul-20 12:00N 30°04' W 093°27'1 2.7
2018-Jul-20 11:30N 30°04' W 093°25'1 2.7
2018-Jul-20 11:00N 30°04' W 093°24'1 2.4
2018-Jul-20 10:30N 30°04' W 093°22'1 2.3
2018-Jul-20 10:00N 30°04' W 093°21'2 3.0
2018-Jul-20 09:30N 30°05' W 093°20'2 3.5
2018-Jul-20 09:00N 30°06' W 093°18'1 2.2
2018-Jul-20 08:30N 30°05' W 093°18'0 0.5
2018-Jul-20 08:00N 30°05' W 093°17'1 2.3
2018-Jul-20 07:30N 30°04' W 093°16'1 2.0
2018-Jul-20 07:00N 30°03' W 093°16'0 0.0
2018-Jul-20 06:30N 30°03' W 093°16'0 0.0
2018-Jul-20 06:00N 30°03' W 093°16'0 0.0
2018-Jul-20 05:30N 30°03' W 093°16'0 0.0
2018-Jul-20 05:00N 30°03' W 093°16'0 0.1
2018-Jul-20 04:30N 30°03' W 093°16'1 2.7
2018-Jul-20 04:00N 30°02' W 093°15'1 2.8
2018-Jul-20 03:30N 30°01' W 093°14'1 2.6
2018-Jul-20 03:00N 30°00' W 093°14'1 2.0
2018-Jul-20 02:30N 29°59' W 093°13'0 0.1
2018-Jul-20 02:00N 29°59' W 093°13'0 0.3
2018-Jul-20 01:30N 29°59' W 093°13'0 0.0
2018-Jul-20 01:00N 29°59' W 093°13'0 0.0
2018-Jul-20 00:30N 29°59' W 093°13'0 0.0
2018-Jul-20 00:00N 29°59' W 093°13'0 0.0
2018-Jul-19 23:30N 29°59' W 093°13'0 0.0
2018-Jul-19 23:00N 29°59' W 093°13'0 0.0
2018-Jul-19 22:30N 29°59' W 093°13'0 0.1
2018-Jul-19 22:00N 29°59' W 093°13'0 0.0
2018-Jul-19 21:30N 29°59' W 093°13'0 0.0
2018-Jul-19 21:00N 29°59' W 093°13'0 0.0
2018-Jul-19 20:30N 29°59' W 093°13'0 0.0
2018-Jul-19 20:00N 29°59' W 093°13'0 0.0
2018-Jul-19 19:30N 29°59' W 093°13'0 0.0
2018-Jul-19 19:00N 29°59' W 093°13'0 0.0
2018-Jul-19 18:30N 29°59' W 093°13'0 0.0
2018-Jul-19 18:00N 29°59' W 093°13'0 0.0
2018-Jul-19 17:30N 29°59' W 093°13'0 0.0
2018-Jul-19 17:00N 29°59' W 093°13'0 0.0
2018-Jul-19 16:30N 29°59' W 093°13'0 0.0
2018-Jul-19 16:00N 29°59' W 093°13'0 0.0
2018-Jul-19 15:30N 29°59' W 093°13'0 0.0
2018-Jul-19 15:00N 29°59' W 093°13'0 0.0
2018-Jul-19 14:29N 29°59' W 093°13'0 0.0
2018-Jul-19 13:30N 29°59' W 093°13'0 0.0
2018-Jul-19 13:00N 29°59' W 093°13'0 0.0
2018-Jul-19 12:30N 29°59' W 093°13'0 0.0
2018-Jul-19 12:00N 29°59' W 093°13'0 0.2
2018-Jul-19 11:31N 29°59' W 093°13'0 0.1
2018-Jul-19 11:00N 29°59' W 093°13'0 0.0
2018-Jul-19 10:30N 29°59' W 093°13'0 0.0
2018-Jul-19 10:00N 29°59' W 093°13'0 0.0
2018-Jul-19 09:30N 29°59' W 093°13'0 0.1
2018-Jul-19 09:00N 29°59' W 093°13'0 0.0
2018-Jul-19 08:30N 29°59' W 093°13'0 0.0
2018-Jul-19 08:00N 29°59' W 093°13'0 0.0
2018-Jul-19 07:30N 29°59' W 093°13'0 0.0
2018-Jul-19 07:00N 29°59' W 093°13'0 0.0
2018-Jul-19 06:30N 29°59' W 093°13'0 0.0
2018-Jul-19 06:00N 29°59' W 093°13'0 0.0
2018-Jul-19 05:30N 29°59' W 093°13'0 0.2
2018-Jul-19 05:00N 29°59' W 093°12'0 0.0
2018-Jul-19 04:30N 29°59' W 093°12'0 0.0
2018-Jul-19 04:00N 29°59' W 093°12'1 2.2
2018-Jul-19 03:30N 29°58' W 093°12'1 2.3
2018-Jul-19 03:00N 29°57' W 093°11'0 0.2
2018-Jul-19 02:30N 29°57' W 093°11'0 0.1
2018-Jul-19 02:00N 29°57' W 093°11'0 0.0
2018-Jul-19 01:30N 29°57' W 093°11'1 1.4
2018-Jul-19 01:00N 29°57' W 093°10'1 1.5
2018-Jul-19 00:30N 29°56' W 093°10'0 0.0
2018-Jul-19 00:00N 29°56' W 093°10'0 0.0
2018-Jul-18 23:30N 29°56' W 093°10'0 0.0
2018-Jul-18 23:00N 29°56' W 093°10'0 0.0
2018-Jul-18 22:29N 29°56' W 093°10'0 0.0
2018-Jul-18 21:58N 29°56' W 093°10'0 0.0
2018-Jul-18 21:30N 29°56' W 093°10'0 0.0
2018-Jul-18 21:00N 29°56' W 093°10'0 0.0
2018-Jul-18 20:30N 29°56' W 093°10'0 0.0
2018-Jul-18 20:00N 29°56' W 093°10'0 0.0
2018-Jul-18 19:30N 29°56' W 093°10'0 0.0
2018-Jul-18 18:57N 29°56' W 093°10'0 0.0
2018-Jul-18 18:30N 29°56' W 093°10'0 0.0
2018-Jul-18 18:00N 29°56' W 093°10'0 0.0
2018-Jul-18 17:30N 29°56' W 093°10'1 1.6
2018-Jul-18 17:00N 29°56' W 093°09'1 0.9
2018-Jul-18 16:20N 29°56' W 093°08'0 0.0
2018-Jul-18 15:35N 29°56' W 093°08'0 0.1
2018-Jul-18 15:30N 29°56' W 093°08'0 0.1
2018-Jul-18 15:00N 29°56' W 093°08'0 0.1
2018-Jul-18 14:30N 29°56' W 093°08'0 0.0
2018-Jul-18 13:30N 29°56' W 093°08'0 0.0
2018-Jul-18 13:00N 29°56' W 093°08'0 0.0
2018-Jul-18 12:30N 29°56' W 093°08'0 0.0
2018-Jul-18 12:00N 29°56' W 093°08'0 0.0
2018-Jul-18 11:30N 29°56' W 093°08'0 0.0
2018-Jul-18 10:30N 29°56' W 093°08'0 0.0
2018-Jul-18 10:00N 29°56' W 093°08'0 0.0
2018-Jul-18 09:30N 29°56' W 093°08'0 0.1
2018-Jul-18 09:00N 29°56' W 093°08'0 0.0
2018-Jul-18 08:30N 29°56' W 093°08'0 0.0
2018-Jul-18 08:00N 29°56' W 093°08'0 0.1
2018-Jul-18 07:29N 29°56' W 093°08'0 0.0
2018-Jul-18 07:00N 29°56' W 093°08'0 0.3
2018-Jul-18 06:30N 29°56' W 093°08'0 0.0
2018-Jul-18 05:59N 29°56' W 093°08'0 0.0
2018-Jul-18 05:30N 29°56' W 093°08'0 0.0
2018-Jul-18 05:00N 29°56' W 093°08'0 0.0
2018-Jul-18 04:30N 29°56' W 093°08'0 0.0
2018-Jul-18 04:00N 29°56' W 093°08'0 0.0
2018-Jul-18 03:30N 29°56' W 093°08'0 0.0
2018-Jul-18 03:00N 29°56' W 093°08'3 2.9
2018-Jul-18 02:03N 29°56' W 093°04'0 3.0
2018-Jul-18 01:57N 29°56' W 093°04'3 2.3
2018-Jul-18 00:28N 29°56' W 093°00'0 0.0
2018-Jul-17 22:29N 29°56' W 093°00'0 0.1
2018-Jul-17 21:51N 29°56' W 093°00'0 0.0
2018-Jul-17 21:30N 29°56' W 093°00'0 0.0
2018-Jul-17 20:47N 29°56' W 093°00'0 0.0
2018-Jul-17 20:27N 29°56' W 093°00'0 0.0
2018-Jul-17 19:58N 29°56' W 093°00'0 0.0
2018-Jul-17 19:21N 29°56' W 093°00'0 0.0
2018-Jul-17 18:54N 29°56' W 093°00'0 0.0
2018-Jul-17 17:21N 29°56' W 093°00'0 0.0
2018-Jul-17 16:42N 29°56' W 093°00'0 0.0
2018-Jul-17 16:21N 29°56' W 093°00'0 0.0
2018-Jul-17 15:47N 29°56' W 093°00'0 0.0
2018-Jul-17 15:27N 29°56' W 093°00'0 0.0
2018-Jul-17 14:55N 29°56' W 093°00'0 0.1
2018-Jul-17 14:29N 29°56' W 093°00'1 2.1
2018-Jul-17 13:52N 29°56' W 092°59'2 4.9
2018-Jul-17 13:29N 29°56' W 092°57'1 2.4
2018-Jul-17 13:00N 29°56' W 092°55'0 0.0
2018-Jul-17 12:29N 29°56' W 092°55'0 0.0
2018-Jul-17 12:00N 29°56' W 092°55'0 0.0
2018-Jul-17 11:28N 29°56' W 092°55'0 0.0
2018-Jul-17 10:57N 29°56' W 092°55'0 0.0
2018-Jul-17 10:29N 29°56' W 092°55'0 0.0
2018-Jul-17 10:00N 29°56' W 092°55'0 0.0
2018-Jul-17 09:30N 29°56' W 092°55'0 0.0
2018-Jul-17 09:00N 29°56' W 092°55'0 0.0
2018-Jul-17 08:30N 29°56' W 092°55'0 0.0
2018-Jul-17 08:00N 29°56' W 092°55'0 0.0
2018-Jul-17 07:29N 29°56' W 092°55'0 0.0
2018-Jul-17 07:00N 29°56' W 092°55'0 0.0
2018-Jul-17 06:30N 29°56' W 092°55'0 0.0
2018-Jul-17 05:57N 29°56' W 092°55'0 0.0
2018-Jul-17 05:23N 29°56' W 092°55'0 0.0
2018-Jul-17 04:32N 29°56' W 092°55'0 0.0
2018-Jul-17 04:17N 29°56' W 092°55'0 0.0
2018-Jul-17 03:46N 29°56' W 092°55'0 0.0
2018-Jul-17 03:29N 29°56' W 092°55'0 0.0
2018-Jul-17 02:41N 29°56' W 092°55'30 2.4
2018-Jul-16 14:24N 29°51' W 092°22'1 3.8
2018-Jul-16 14:00N 29°51' W 092°20'0 0.0
2018-Jul-16 13:30N 29°51' W 092°20'0 0.0
2018-Jul-16 13:00N 29°51' W 092°20'0 0.0
2018-Jul-16 12:30N 29°51' W 092°20'0 0.6
2018-Jul-16 12:00N 29°51' W 092°20'1 2.3
2018-Jul-16 11:30N 29°50' W 092°18'2 3.5
2018-Jul-16 11:00N 29°49' W 092°17'1 2.9
2018-Jul-16 10:31N 29°48' W 092°16'2 3.5
2018-Jul-16 10:01N 29°48' W 092°14'2 3.3
2018-Jul-16 09:30N 29°47' W 092°12'2 3.5
2018-Jul-16 09:00N 29°47' W 092°10'2 3.7
2018-Jul-16 08:30N 29°47' W 092°08'2 4.2
2018-Jul-16 08:00N 29°48' W 092°06'2 4.1
2018-Jul-16 07:30N 29°49' W 092°03'2 4.0
2018-Jul-16 07:00N 29°49' W 092°01'2 4.2
2018-Jul-16 06:30N 29°50' W 091°59'2 4.3
2018-Jul-16 06:00N 29°51' W 091°57'2 3.3
2018-Jul-16 05:30N 29°51' W 091°55'113 2.5
2018-Jul-14 07:42N 31°41' W 091°24'2 9.3
2018-Jul-14 07:30N 31°43' W 091°24'5 9.7
2018-Jul-14 07:00N 31°47' W 091°22'5 9.4
2018-Jul-14 06:30N 31°51' W 091°20'7 9.5
2018-Jul-14 05:48N 31°54' W 091°12'310.9
2018-Jul-14 05:30N 31°57' W 091°12'5 9.2
2018-Jul-14 04:59N 31°59' W 091°07'510.6
2018-Jul-14 04:30N 32°03' W 091°03'5 9.4
2018-Jul-14 04:00N 32°08' W 091°06'5 9.3
2018-Jul-14 03:30N 32°08' W 091°01'5 9.3
2018-Jul-14 03:00N 32°13' W 090°59'510.0
2018-Jul-14 02:30N 32°17' W 090°56'4 7.7
2018-Jul-14 02:00N 32°21' W 090°55'1 3.0
2018-Jul-14 01:30N 32°21' W 090°56'4 7.2
2018-Jul-14 01:00N 32°23' W 091°00'4 8.7
2018-Jul-14 00:30N 32°26' W 091°03'510.1
2018-Jul-14 00:00N 32°30' W 091°07'5 9.9
2018-Jul-13 23:30N 32°35' W 091°07'5 9.9
2018-Jul-13 23:00N 32°40' W 091°08'510.3
2018-Jul-13 22:30N 32°43' W 091°03'6 9.0
2018-Jul-13 21:54N 32°45' W 091°09'  
Track history (hours):
 
Tides and Currents Weather Stations Pressure Air Temp Water Temp Dewpoint Dewpoint Depression Visibility Wind Speed Wind Dir Waves Ship Positions

Clark Todd

Owner: The Barge Investment Group Ten, LLC, Harahan, LA. More information available from US FCC via Universal Licensing System and Coast Guard Vessel Documentation Center.

Last reported at 2018-Jul-22 06:30 UTC. Time now 2018-Jul-22 06:33 UTC.
Position N 29°60' W 093°55'.

Length 25 m; draft 2.7 m.

Type: Towing. MMSI: 367637760.

Date/timePositionNaut miles runAvg speedWind from/ knotsBaromVisibWave heightAir tempDewpointWater temp
2018-Jul-22 06:30N 29°60' W 093°55'0 0.0
2018-Jul-22 06:00N 29°60' W 093°55'0 0.0
2018-Jul-22 05:30N 29°60' W 093°55'0 0.0
2018-Jul-22 05:00N 29°60' W 093°55'0 0.0
2018-Jul-22 04:30N 29°60' W 093°55'0 0.0
2018-Jul-22 04:00N 29°60' W 093°55'0 0.0
2018-Jul-22 03:30N 29°60' W 093°55'0 0.0
2018-Jul-22 03:00N 29°60' W 093°55'0 0.0
2018-Jul-22 02:30N 29°60' W 093°55'0 0.0
2018-Jul-22 02:00N 29°60' W 093°55'0 0.0
2018-Jul-22 01:30N 29°60' W 093°55'0 0.0
2018-Jul-22 01:00N 29°60' W 093°55'0 0.0
2018-Jul-22 00:30N 29°60' W 093°55'0 0.0
2018-Jul-22 00:00N 29°60' W 093°55'0 0.0
2018-Jul-21 23:30N 29°60' W 093°55'0 0.0
2018-Jul-21 23:00N 29°60' W 093°55'0 0.0
2018-Jul-21 22:30N 29°60' W 093°55'0 0.0
2018-Jul-21 22:00N 29°60' W 093°55'0 0.0
2018-Jul-21 21:24N 29°60' W 093°55'0 0.0
2018-Jul-21 21:00N 29°60' W 093°55'0 0.0
2018-Jul-21 20:30N 29°60' W 093°55'0 0.0
2018-Jul-21 20:00N 29°60' W 093°55'0 0.0
2018-Jul-21 19:30N 29°60' W 093°55'0 0.0
2018-Jul-21 19:00N 29°60' W 093°55'0 0.0
2018-Jul-21 18:30N 29°60' W 093°55'1 2.5
2018-Jul-21 18:00N 29°60' W 093°56'2 4.3
2018-Jul-21 17:30N 30°01' W 093°58'0 0.7
2018-Jul-21 16:56N 30°00' W 093°59'0 0.0
2018-Jul-21 16:29N 30°00' W 093°59'0 0.0
2018-Jul-21 15:59N 30°00' W 093°59'0 0.0
2018-Jul-21 15:29N 30°00' W 093°59'0 0.0
2018-Jul-21 14:56N 30°00' W 093°59'0 0.0
2018-Jul-21 14:29N 30°00' W 093°59'0 0.0
2018-Jul-21 13:29N 30°00' W 093°59'0 0.0
2018-Jul-21 12:59N 30°00' W 093°59'0 0.0
2018-Jul-21 12:26N 30°00' W 093°59'0 0.0
2018-Jul-21 11:59N 30°00' W 093°59'0 0.0
2018-Jul-21 11:26N 30°00' W 093°59'0 0.0
2018-Jul-21 10:59N 30°00' W 093°59'0 0.0
2018-Jul-21 10:29N 30°00' W 093°59'0 0.0
2018-Jul-21 09:59N 30°00' W 093°59'0 0.0
2018-Jul-21 09:29N 30°00' W 093°59'0 0.0
2018-Jul-21 08:59N 30°00' W 093°59'0 0.0
2018-Jul-21 08:29N 30°00' W 093°59'0 0.0
2018-Jul-21 07:59N 30°00' W 093°59'0 0.0
2018-Jul-21 07:29N 30°00' W 093°59'0 0.0
2018-Jul-21 06:59N 30°00' W 093°59'0 0.0
2018-Jul-21 06:29N 30°00' W 093°59'0 0.0
2018-Jul-21 05:59N 30°00' W 093°59'0 0.0
2018-Jul-21 05:29N 30°00' W 093°59'0 0.0
2018-Jul-21 04:59N 30°00' W 093°59'0 0.0
2018-Jul-21 04:29N 30°00' W 093°59'0 0.0
2018-Jul-21 04:00N 30°00' W 093°59'0 0.0
2018-Jul-21 03:30N 30°00' W 093°59'0 0.0
2018-Jul-21 03:00N 30°00' W 093°59'0 0.0
2018-Jul-21 02:30N 30°00' W 093°59'0 0.0
2018-Jul-21 02:00N 30°00' W 093°59'0 0.1
2018-Jul-21 01:30N 30°01' W 093°59'0 0.0
2018-Jul-21 01:00N 30°01' W 093°59'0 0.0
2018-Jul-21 00:30N 30°01' W 093°59'0 0.0
2018-Jul-21 00:00N 30°01' W 093°59'0 0.0
2018-Jul-20 23:30N 30°01' W 093°59'1 1.4
2018-Jul-20 23:00N 30°01' W 093°58'2 4.7
2018-Jul-20 22:30N 29°60' W 093°56'1 1.2
2018-Jul-20 22:00N 29°60' W 093°55'0 0.0
2018-Jul-20 21:30N 29°60' W 093°55'0 0.0
2018-Jul-20 21:00N 29°60' W 093°55'0 0.4
2018-Jul-20 20:30N 29°60' W 093°55'0 0.9
2018-Jul-20 20:00N 29°59' W 093°55'1 1.2
2018-Jul-20 19:30N 29°59' W 093°55'2 4.8
2018-Jul-20 19:00N 29°59' W 093°52'2 3.8
2018-Jul-20 18:30N 29°59' W 093°50'3 5.1
2018-Jul-20 18:00N 29°60' W 093°47'2 4.7
2018-Jul-20 17:30N 30°01' W 093°45'2 4.4
2018-Jul-20 17:00N 30°03' W 093°44'2 4.2
2018-Jul-20 16:29N 30°04' W 093°41'2 3.7
2018-Jul-20 16:00N 30°04' W 093°39'2 3.6
2018-Jul-20 15:30N 30°04' W 093°37'1 2.7
2018-Jul-20 15:00N 30°04' W 093°36'2 3.4
2018-Jul-20 14:29N 30°04' W 093°34'2 3.2
2018-Jul-20 13:55N 30°04' W 093°31'0 0.3
2018-Jul-20 13:30N 30°04' W 093°32'1 2.4
2018-Jul-20 12:57N 30°04' W 093°30'1 2.7
2018-Jul-20 12:26N 30°04' W 093°28'1 3.3
2018-Jul-20 12:00N 30°04' W 093°27'1 2.7
2018-Jul-20 11:30N 30°04' W 093°25'1 2.7
2018-Jul-20 11:00N 30°04' W 093°24'1 2.4
2018-Jul-20 10:30N 30°04' W 093°22'1 2.3
2018-Jul-20 10:00N 30°04' W 093°21'2 3.0
2018-Jul-20 09:30N 30°05' W 093°20'2 3.5
2018-Jul-20 09:00N 30°06' W 093°18'1 2.2
2018-Jul-20 08:30N 30°05' W 093°18'0 0.5
2018-Jul-20 08:00N 30°05' W 093°17'1 2.3
2018-Jul-20 07:30N 30°04' W 093°16'1 2.0
2018-Jul-20 07:00N 30°03' W 093°16'0 0.0
2018-Jul-20 06:30N 30°03' W 093°16'0 0.0
2018-Jul-20 06:00N 30°03' W 093°16'0 0.0
2018-Jul-20 05:30N 30°03' W 093°16'0 0.0
2018-Jul-20 05:00N 30°03' W 093°16'0 0.1
2018-Jul-20 04:30N 30°03' W 093°16'1 2.7
2018-Jul-20 04:00N 30°02' W 093°15'1 2.8
2018-Jul-20 03:30N 30°01' W 093°14'1 2.6
2018-Jul-20 03:00N 30°00' W 093°14'1 2.0
2018-Jul-20 02:30N 29°59' W 093°13'0 0.1
2018-Jul-20 02:00N 29°59' W 093°13'0 0.3
2018-Jul-20 01:30N 29°59' W 093°13'0 0.0
2018-Jul-20 01:00N 29°59' W 093°13'0 0.0
2018-Jul-20 00:30N 29°59' W 093°13'0 0.0
2018-Jul-20 00:00N 29°59' W 093°13'0 0.0
2018-Jul-19 23:30N 29°59' W 093°13'0 0.0
2018-Jul-19 23:00N 29°59' W 093°13'0 0.0
2018-Jul-19 22:30N 29°59' W 093°13'0 0.1
2018-Jul-19 22:00N 29°59' W 093°13'0 0.0
2018-Jul-19 21:30N 29°59' W 093°13'0 0.0
2018-Jul-19 21:00N 29°59' W 093°13'0 0.0
2018-Jul-19 20:30N 29°59' W 093°13'0 0.0
2018-Jul-19 20:00N 29°59' W 093°13'0 0.0
2018-Jul-19 19:30N 29°59' W 093°13'0 0.0
2018-Jul-19 19:00N 29°59' W 093°13'0 0.0
2018-Jul-19 18:30N 29°59' W 093°13'0 0.0
2018-Jul-19 18:00N 29°59' W 093°13'0 0.0
2018-Jul-19 17:30N 29°59' W 093°13'0 0.0
2018-Jul-19 17:00N 29°59' W 093°13'0 0.0
2018-Jul-19 16:30N 29°59' W 093°13'0 0.0
2018-Jul-19 16:00N 29°59' W 093°13'0 0.0
2018-Jul-19 15:30N 29°59' W 093°13'0 0.0
2018-Jul-19 15:00N 29°59' W 093°13'0 0.0
2018-Jul-19 14:29N 29°59' W 093°13'0 0.0
2018-Jul-19 13:30N 29°59' W 093°13'0 0.0
2018-Jul-19 13:00N 29°59' W 093°13'0 0.0
2018-Jul-19 12:30N 29°59' W 093°13'0 0.0
2018-Jul-19 12:00N 29°59' W 093°13'0 0.2
2018-Jul-19 11:31N 29°59' W 093°13'0 0.1
2018-Jul-19 11:00N 29°59' W 093°13'0 0.0
2018-Jul-19 10:30N 29°59' W 093°13'0 0.0
2018-Jul-19 10:00N 29°59' W 093°13'0 0.0
2018-Jul-19 09:30N 29°59' W 093°13'0 0.1
2018-Jul-19 09:00N 29°59' W 093°13'0 0.0
2018-Jul-19 08:30N 29°59' W 093°13'0 0.0
2018-Jul-19 08:00N 29°59' W 093°13'0 0.0
2018-Jul-19 07:30N 29°59' W 093°13'0 0.0
2018-Jul-19 07:00N 29°59' W 093°13'0 0.0
2018-Jul-19 06:30N 29°59' W 093°13'0 0.0
2018-Jul-19 06:00N 29°59' W 093°13'0 0.0
2018-Jul-19 05:30N 29°59' W 093°13'0 0.2
2018-Jul-19 05:00N 29°59' W 093°12'0 0.0
2018-Jul-19 04:30N 29°59' W 093°12'0 0.0
2018-Jul-19 04:00N 29°59' W 093°12'1 2.2
2018-Jul-19 03:30N 29°58' W 093°12'1 2.3
2018-Jul-19 03:00N 29°57' W 093°11'0 0.2
2018-Jul-19 02:30N 29°57' W 093°11'0 0.1
2018-Jul-19 02:00N 29°57' W 093°11'0 0.0
2018-Jul-19 01:30N 29°57' W 093°11'1 1.4
2018-Jul-19 01:00N 29°57' W 093°10'1 1.5
2018-Jul-19 00:30N 29°56' W 093°10'0 0.0
2018-Jul-19 00:00N 29°56' W 093°10'0 0.0
2018-Jul-18 23:30N 29°56' W 093°10'0 0.0
2018-Jul-18 23:00N 29°56' W 093°10'0 0.0
2018-Jul-18 22:29N 29°56' W 093°10'0 0.0
2018-Jul-18 21:58N 29°56' W 093°10'0 0.0
2018-Jul-18 21:30N 29°56' W 093°10'0 0.0
2018-Jul-18 21:00N 29°56' W 093°10'0 0.0
2018-Jul-18 20:30N 29°56' W 093°10'0 0.0
2018-Jul-18 20:00N 29°56' W 093°10'0 0.0
2018-Jul-18 19:30N 29°56' W 093°10'0 0.0
2018-Jul-18 18:57N 29°56' W 093°10'0 0.0
2018-Jul-18 18:30N 29°56' W 093°10'0 0.0
2018-Jul-18 18:00N 29°56' W 093°10'0 0.0
2018-Jul-18 17:30N 29°56' W 093°10'1 1.6
2018-Jul-18 17:00N 29°56' W 093°09'1 0.9
2018-Jul-18 16:20N 29°56' W 093°08'0 0.0
2018-Jul-18 15:35N 29°56' W 093°08'0 0.1
2018-Jul-18 15:30N 29°56' W 093°08'0 0.1
2018-Jul-18 15:00N 29°56' W 093°08'0 0.1
2018-Jul-18 14:30N 29°56' W 093°08'0 0.0
2018-Jul-18 13:30N 29°56' W 093°08'0 0.0
2018-Jul-18 13:00N 29°56' W 093°08'0 0.0
2018-Jul-18 12:30N 29°56' W 093°08'0 0.0
2018-Jul-18 12:00N 29°56' W 093°08'0 0.0
2018-Jul-18 11:30N 29°56' W 093°08'0 0.0
2018-Jul-18 10:30N 29°56' W 093°08'0 0.0
2018-Jul-18 10:00N 29°56' W 093°08'0 0.0
2018-Jul-18 09:30N 29°56' W 093°08'0 0.1
2018-Jul-18 09:00N 29°56' W 093°08'0 0.0
2018-Jul-18 08:30N 29°56' W 093°08'0 0.0
2018-Jul-18 08:00N 29°56' W 093°08'0 0.1
2018-Jul-18 07:29N 29°56' W 093°08'0 0.0
2018-Jul-18 07:00N 29°56' W 093°08'0 0.3
2018-Jul-18 06:30N 29°56' W 093°08'0 0.0
2018-Jul-18 05:59N 29°56' W 093°08'0 0.0
2018-Jul-18 05:30N 29°56' W 093°08'0 0.0
2018-Jul-18 05:00N 29°56' W 093°08'0 0.0
2018-Jul-18 04:30N 29°56' W 093°08'0 0.0
2018-Jul-18 04:00N 29°56' W 093°08'0 0.0
2018-Jul-18 03:30N 29°56' W 093°08'0 0.0
2018-Jul-18 03:00N 29°56' W 093°08'3 2.9
2018-Jul-18 02:03N 29°56' W 093°04'0 3.0
2018-Jul-18 01:57N 29°56' W 093°04'3 2.3
2018-Jul-18 00:28N 29°56' W 093°00'0 0.0
2018-Jul-17 22:29N 29°56' W 093°00'0 0.1
2018-Jul-17 21:51N 29°56' W 093°00'0 0.0
2018-Jul-17 21:30N 29°56' W 093°00'0 0.0
2018-Jul-17 20:47N 29°56' W 093°00'0 0.0
2018-Jul-17 20:27N 29°56' W 093°00'0 0.0
2018-Jul-17 19:58N 29°56' W 093°00'0 0.0
2018-Jul-17 19:21N 29°56' W 093°00'0 0.0
2018-Jul-17 18:54N 29°56' W 093°00'0 0.0
2018-Jul-17 17:21N 29°56' W 093°00'0 0.0
2018-Jul-17 16:42N 29°56' W 093°00'0 0.0
2018-Jul-17 16:21N 29°56' W 093°00'0 0.0
2018-Jul-17 15:47N 29°56' W 093°00'0 0.0
2018-Jul-17 15:27N 29°56' W 093°00'0 0.0
2018-Jul-17 14:55N 29°56' W 093°00'0 0.1
2018-Jul-17 14:29N 29°56' W 093°00'1 2.1
2018-Jul-17 13:52N 29°56' W 092°59'2 4.9
2018-Jul-17 13:29N 29°56' W 092°57'1 2.4
2018-Jul-17 13:00N 29°56' W 092°55'0 0.0
2018-Jul-17 12:29N 29°56' W 092°55'0 0.0
2018-Jul-17 12:00N 29°56' W 092°55'0 0.0
2018-Jul-17 11:28N 29°56' W 092°55'0 0.0
2018-Jul-17 10:57N 29°56' W 092°55'0 0.0
2018-Jul-17 10:29N 29°56' W 092°55'0 0.0
2018-Jul-17 10:00N 29°56' W 092°55'0 0.0
2018-Jul-17 09:30N 29°56' W 092°55'0 0.0
2018-Jul-17 09:00N 29°56' W 092°55'0 0.0
2018-Jul-17 08:30N 29°56' W 092°55'0 0.0
2018-Jul-17 08:00N 29°56' W 092°55'0 0.0
2018-Jul-17 07:29N 29°56' W 092°55'0 0.0
2018-Jul-17 07:00N 29°56' W 092°55'0 0.0
2018-Jul-17 06:30N 29°56' W 092°55'0 0.0
2018-Jul-17 05:57N 29°56' W 092°55'0 0.0
2018-Jul-17 05:23N 29°56' W 092°55'0 0.0
2018-Jul-17 04:32N 29°56' W 092°55'0 0.0
2018-Jul-17 04:17N 29°56' W 092°55'0 0.0
2018-Jul-17 03:46N 29°56' W 092°55'0 0.0
2018-Jul-17 03:29N 29°56' W 092°55'0 0.0
2018-Jul-17 02:41N 29°56' W 092°55'30 2.4
2018-Jul-16 14:24N 29°51' W 092°22'1 3.8
2018-Jul-16 14:00N 29°51' W 092°20'0 0.0
2018-Jul-16 13:30N 29°51' W 092°20'0 0.0
2018-Jul-16 13:00N 29°51' W 092°20'0 0.0
2018-Jul-16 12:30N 29°51' W 092°20'0 0.6
2018-Jul-16 12:00N 29°51' W 092°20'1 2.3
2018-Jul-16 11:30N 29°50' W 092°18'2 3.5
2018-Jul-16 11:00N 29°49' W 092°17'1 2.9
2018-Jul-16 10:31N 29°48' W 092°16'2 3.5
2018-Jul-16 10:01N 29°48' W 092°14'2 3.3
2018-Jul-16 09:30N 29°47' W 092°12'2 3.5
2018-Jul-16 09:00N 29°47' W 092°10'2 3.7
2018-Jul-16 08:30N 29°47' W 092°08'2 4.2
2018-Jul-16 08:00N 29°48' W 092°06'2 4.1
2018-Jul-16 07:30N 29°49' W 092°03'2 4.0
2018-Jul-16 07:00N 29°49' W 092°01'2 4.2
2018-Jul-16 06:30N 29°50' W 091°59'2 4.3
2018-Jul-16 06:00N 29°51' W 091°57'2 3.3
2018-Jul-16 05:30N 29°51' W 091°55'113 2.5
2018-Jul-14 07:42N 31°41' W 091°24'2 9.3
2018-Jul-14 07:30N 31°43' W 091°24'5 9.7
2018-Jul-14 07:00N 31°47' W 091°22'5 9.4
2018-Jul-14 06:30N 31°51' W 091°20'7 9.5
2018-Jul-14 05:48N 31°54' W 091°12'310.9
2018-Jul-14 05:30N 31°57' W 091°12'5 9.2
2018-Jul-14 04:59N 31°59' W 091°07'510.6
2018-Jul-14 04:30N 32°03' W 091°03'5 9.4
2018-Jul-14 04:00N 32°08' W 091°06'5 9.3
2018-Jul-14 03:30N 32°08' W 091°01'5 9.3
2018-Jul-14 03:00N 32°13' W 090°59'510.0
2018-Jul-14 02:30N 32°17' W 090°56'4 7.7
2018-Jul-14 02:00N 32°21' W 090°55'1 3.0
2018-Jul-14 01:30N 32°21' W 090°56'4 7.2
2018-Jul-14 01:00N 32°23' W 091°00'4 8.7
2018-Jul-14 00:30N 32°26' W 091°03'510.1
2018-Jul-14 00:00N 32°30' W 091°07'5 9.9
2018-Jul-13 23:30N 32°35' W 091°07'5 9.9
2018-Jul-13 23:00N 32°40' W 091°08'510.3
2018-Jul-13 22:30N 32°43' W 091°03'6 9.0
2018-Jul-13 21:54N 32°45' W 091°09'  

Dump ship's entire track history